sensor_id;sensor_type;location;lat;lon;timestamp;pressure;altitude;pressure_sealevel;temperature;humidity
8573;BME280;4324;42.012;24.872;2022-12-13T00:01:17;98174.91;;;7.15;100.00
8573;BME280;4324;42.012;24.872;2022-12-13T00:03:45;98189.72;;;7.24;100.00
8573;BME280;4324;42.012;24.872;2022-12-13T00:06:12;98171.94;;;7.18;100.00
8573;BME280;4324;42.012;24.872;2022-12-13T00:08:41;98146.94;;;6.98;100.00
8573;BME280;4324;42.012;24.872;2022-12-13T00:11:11;98193.16;;;7.33;100.00
8573;BME280;4324;42.012;24.872;2022-12-13T00:13:38;98194.84;;;7.34;100.00
8573;BME280;4324;42.012;24.872;2022-12-13T00:16:11;98172.91;;;7.34;100.00
8573;BME280;4324;42.012;24.872;2022-12-13T00:18:38;98188.38;;;7.45;100.00
8573;BME280;4324;42.012;24.872;2022-12-13T00:21:06;98197.97;;;7.46;100.00
8573;BME280;4324;42.012;24.872;2022-12-13T00:23:34;98187.41;;;7.46;100.00
8573;BME280;4324;42.012;24.872;2022-12-13T00:26:04;98164.38;;;7.32;100.00
8573;BME280;4324;42.012;24.872;2022-12-13T00:28:31;98188.72;;;7.50;100.00
8573;BME280;4324;42.012;24.872;2022-12-13T00:30:58;98185.75;;;7.45;100.00
8573;BME280;4324;42.012;24.872;2022-12-13T00:33:25;98191.50;;;7.48;100.00
8573;BME280;4324;42.012;24.872;2022-12-13T00:35:53;98102.53;;;6.95;100.00
8573;BME280;4324;42.012;24.872;2022-12-13T00:38:20;98178.84;;;7.44;100.00
8573;BME280;4324;42.012;24.872;2022-12-13T00:40:47;98181.78;;;7.49;100.00
8573;BME280;4324;42.012;24.872;2022-12-13T00:43:17;98190.69;;;7.48;100.00
8573;BME280;4324;42.012;24.872;2022-12-13T00:45:44;98180.34;;;7.46;100.00
8573;BME280;4324;42.012;24.872;2022-12-13T00:48:11;98197.94;;;7.62;100.00
8573;BME280;4324;42.012;24.872;2022-12-13T00:50:38;98215.22;;;7.73;100.00
8573;BME280;4324;42.012;24.872;2022-12-13T00:53:05;98214.06;;;7.75;100.00
8573;BME280;4324;42.012;24.872;2022-12-13T00:55:32;98211.06;;;7.79;100.00
8573;BME280;4324;42.012;24.872;2022-12-13T00:57:59;98219.63;;;7.81;100.00
8573;BME280;4324;42.012;24.872;2022-12-13T01:00:27;98182.78;;;7.56;100.00
8573;BME280;4324;42.012;24.872;2022-12-13T01:02:54;98188.38;;;7.45;100.00
8573;BME280;4324;42.012;24.872;2022-12-13T01:05:21;98188.56;;;7.35;100.00
8573;BME280;4324;42.012;24.872;2022-12-13T01:07:48;98216.03;;;7.41;100.00
8573;BME280;4324;42.012;24.872;2022-12-13T01:10:15;98217.06;;;7.32;100.00
8573;BME280;4324;42.012;24.872;2022-12-13T01:12:42;98217.38;;;7.20;100.00
8573;BME280;4324;42.012;24.872;2022-12-13T01:15:09;98226.41;;;7.18;100.00
8573;BME280;4324;42.012;24.872;2022-12-13T01:17:37;98223.47;;;7.13;100.00
8573;BME280;4324;42.012;24.872;2022-12-13T01:20:06;98235.44;;;7.07;100.00
8573;BME280;4324;42.012;24.872;2022-12-13T01:22:36;98219.81;;;6.97;100.00
8573;BME280;4324;42.012;24.872;2022-12-13T01:25:04;98176.03;;;6.64;100.00
8573;BME280;4324;42.012;24.872;2022-12-13T01:27:31;98215.38;;;6.90;100.00
8573;BME280;4324;42.012;24.872;2022-12-13T01:29:58;98162.31;;;6.52;100.00
8573;BME280;4324;42.012;24.872;2022-12-13T01:32:25;98267.34;;;7.04;100.00
8573;BME280;4324;42.012;24.872;2022-12-13T01:34:53;98241.31;;;6.85;99.35
8573;BME280;4324;42.012;24.872;2022-12-13T01:37:20;98223.53;;;6.78;100.00
8573;BME280;4324;42.012;24.872;2022-12-13T01:39:47;98249.91;;;6.95;100.00
8573;BME280;4324;42.012;24.872;2022-12-13T01:42:22;98248.09;;;6.87;100.00
8573;BME280;4324;42.012;24.872;2022-12-13T01:48:00;98264.00;;;6.77;99.70
8573;BME280;4324;42.012;24.872;2022-12-13T01:50:32;98271.97;;;6.94;98.78
8573;BME280;4324;42.012;24.872;2022-12-13T01:53:00;98253.19;;;6.89;100.00
8573;BME280;4324;42.012;24.872;2022-12-13T01:55:30;98244.59;;;6.78;100.00
8573;BME280;4324;42.012;24.872;2022-12-13T01:58:02;98257.47;;;6.90;100.00
8573;BME280;4324;42.012;24.872;2022-12-13T02:00:31;98296.81;;;7.08;100.00
8573;BME280;4324;42.012;24.872;2022-12-13T02:03:01;98291.22;;;7.02;100.00
8573;BME280;4324;42.012;24.872;2022-12-13T02:05:35;98282.81;;;6.99;100.00
8573;BME280;4324;42.012;24.872;2022-12-13T02:08:04;98284.44;;;6.92;100.00
8573;BME280;4324;42.012;24.872;2022-12-13T02:10:31;98272.59;;;6.88;100.00
8573;BME280;4324;42.012;24.872;2022-12-13T02:12:58;98288.88;;;6.91;100.00
8573;BME280;4324;42.012;24.872;2022-12-13T02:15:27;98290.31;;;6.86;100.00
8573;BME280;4324;42.012;24.872;2022-12-13T02:18:17;98264.28;;;6.66;100.00
8573;BME280;4324;42.012;24.872;2022-12-13T02:21:21;98293.94;;;6.85;100.00
8573;BME280;4324;42.012;24.872;2022-12-13T02:27:03;98321.47;;;6.90;100.00
8573;BME280;4324;42.012;24.872;2022-12-13T02:30:21;98322.59;;;6.96;100.00
8573;BME280;4324;42.012;24.872;2022-12-13T02:33:21;98320.28;;;6.93;100.00
8573;BME280;4324;42.012;24.872;2022-12-13T02:36:00;98282.06;;;6.64;100.00
8573;BME280;4324;42.012;24.872;2022-12-13T02:38:37;98309.88;;;6.75;100.00
8573;BME280;4324;42.012;24.872;2022-12-13T02:41:14;98300.09;;;6.59;100.00
8573;BME280;4324;42.012;24.872;2022-12-13T02:43:47;98288.91;;;6.49;100.00
8573;BME280;4324;42.012;24.872;2022-12-13T02:46:20;98319.84;;;6.63;100.00
8573;BME280;4324;42.012;24.872;2022-12-13T02:48:50;98295.81;;;6.50;100.00
8573;BME280;4324;42.012;24.872;2022-12-13T02:51:19;98288.19;;;6.39;100.00
8573;BME280;4324;42.012;24.872;2022-12-13T02:53:47;98310.91;;;6.48;100.00
8573;BME280;4324;42.012;24.872;2022-12-13T02:56:14;98308.91;;;6.42;100.00
8573;BME280;4324;42.012;24.872;2022-12-13T02:58:44;98299.00;;;6.36;100.00
8573;BME280;4324;42.012;24.872;2022-12-13T03:01:34;98307.06;;;6.34;100.00
8573;BME280;4324;42.012;24.872;2022-12-13T03:04:11;98314.09;;;6.34;100.00
8573;BME280;4324;42.012;24.872;2022-12-13T03:06:48;98249.66;;;5.95;100.00
8573;BME280;4324;42.012;24.872;2022-12-13T03:09:27;98324.63;;;6.34;100.00
8573;BME280;4324;42.012;24.872;2022-12-13T03:12:10;98322.63;;;6.27;100.00
8573;BME280;4324;42.012;24.872;2022-12-13T03:15:01;98325.22;;;6.19;100.00
8573;BME280;4324;42.012;24.872;2022-12-13T03:17:41;98323.59;;;6.26;100.00
8573;BME280;4324;42.012;24.872;2022-12-13T03:20:14;98317.47;;;6.18;100.00
8573;BME280;4324;42.012;24.872;2022-12-13T03:22:42;98309.03;;;6.06;100.00
8573;BME280;4324;42.012;24.872;2022-12-13T03:25:09;98337.06;;;6.23;100.00
8573;BME280;4324;42.012;24.872;2022-12-13T03:27:36;98341.66;;;6.21;100.00
8573;BME280;4324;42.012;24.872;2022-12-13T03:30:04;98312.31;;;6.08;100.00
8573;BME280;4324;42.012;24.872;2022-12-13T03:32:31;98333.31;;;6.08;100.00
8573;BME280;4324;42.012;24.872;2022-12-13T03:35:06;98331.69;;;6.07;100.00
8573;BME280;4324;42.012;24.872;2022-12-13T03:37:33;98328.06;;;6.08;100.00
8573;BME280;4324;42.012;24.872;2022-12-13T03:40:00;98326.91;;;6.02;100.00
8573;BME280;4324;42.012;24.872;2022-12-13T03:42:28;98312.16;;;5.92;100.00
8573;BME280;4324;42.012;24.872;2022-12-13T03:44:55;98317.97;;;5.95;100.00
8573;BME280;4324;42.012;24.872;2022-12-13T03:47:23;98277.22;;;5.73;100.00
8573;BME280;4324;42.012;24.872;2022-12-13T03:49:50;98281.88;;;5.79;100.00
8573;BME280;4324;42.012;24.872;2022-12-13T03:52:19;98322.41;;;5.95;100.00
8573;BME280;4324;42.012;24.872;2022-12-13T03:54:46;98346.41;;;6.00;100.00
8573;BME280;4324;42.012;24.872;2022-12-13T03:57:13;98329.22;;;5.88;100.00
8573;BME280;4324;42.012;24.872;2022-12-13T03:59:40;98331.84;;;5.88;100.00
8573;BME280;4324;42.012;24.872;2022-12-13T04:02:07;98345.38;;;5.93;99.69
8573;BME280;4324;42.012;24.872;2022-12-13T04:04:34;98335.16;;;5.90;100.00
8573;BME280;4324;42.012;24.872;2022-12-13T04:07:01;98316.31;;;5.76;99.11
8573;BME280;4324;42.012;24.872;2022-12-13T04:09:29;98328.19;;;5.80;99.59
8573;BME280;4324;42.012;24.872;2022-12-13T04:11:56;98342.31;;;5.79;98.91
8573;BME280;4324;42.012;24.872;2022-12-13T04:14:41;98328.66;;;5.76;100.00
8573;BME280;4324;42.012;24.872;2022-12-13T04:17:08;98325.44;;;5.64;99.48
8573;BME280;4324;42.012;24.872;2022-12-13T04:19:35;98336.66;;;5.74;99.54
8573;BME280;4324;42.012;24.872;2022-12-13T04:22:01;98324.91;;;5.61;98.10
8573;BME280;4324;42.012;24.872;2022-12-13T04:24:30;98357.66;;;5.74;98.56
8573;BME280;4324;42.012;24.872;2022-12-13T04:26:57;98347.50;;;5.71;97.63
8573;BME280;4324;42.012;24.872;2022-12-13T04:29:24;98352.88;;;5.70;99.95
8573;BME280;4324;42.012;24.872;2022-12-13T04:31:51;98334.88;;;5.57;99.84
8573;BME280;4324;42.012;24.872;2022-12-13T04:34:18;98340.56;;;5.52;100.00
8573;BME280;4324;42.012;24.872;2022-12-13T04:36:45;98348.44;;;5.52;99.99
8573;BME280;4324;42.012;24.872;2022-12-13T04:39:12;98356.31;;;5.70;100.00
8573;BME280;4324;42.012;24.872;2022-12-13T04:41:43;98367.97;;;5.68;100.00
8573;BME280;4324;42.012;24.872;2022-12-13T04:44:10;98365.78;;;5.63;99.11
8573;BME280;4324;42.012;24.872;2022-12-13T04:46:37;98368.72;;;5.60;98.57
8573;BME280;4324;42.012;24.872;2022-12-13T04:49:04;98374.94;;;5.59;97.08
8573;BME280;4324;42.012;24.872;2022-12-13T04:51:33;98370.31;;;5.53;97.82
8573;BME280;4324;42.012;24.872;2022-12-13T04:54:00;98377.50;;;5.51;97.69
8573;BME280;4324;42.012;24.872;2022-12-13T04:56:27;98362.94;;;5.39;97.11
8573;BME280;4324;42.012;24.872;2022-12-13T04:58:56;98364.41;;;5.41;97.35
8573;BME280;4324;42.012;24.872;2022-12-13T05:01:22;98394.88;;;5.52;98.00
8573;BME280;4324;42.012;24.872;2022-12-13T05:03:49;98354.50;;;5.17;98.20
8573;BME280;4324;42.012;24.872;2022-12-13T05:06:16;98404.56;;;5.51;99.51
8573;BME280;4324;42.012;24.872;2022-12-13T05:08:46;98415.75;;;5.53;98.04
8573;BME280;4324;42.012;24.872;2022-12-13T05:11:13;98412.31;;;5.53;96.09
8573;BME280;4324;42.012;24.872;2022-12-13T05:13:40;98415.91;;;5.52;97.48
8573;BME280;4324;42.012;24.872;2022-12-13T05:16:08;98395.09;;;5.41;98.28
8573;BME280;4324;42.012;24.872;2022-12-13T05:18:36;98430.25;;;5.57;98.71
8573;BME280;4324;42.012;24.872;2022-12-13T05:21:05;98432.34;;;5.54;97.15
8573;BME280;4324;42.012;24.872;2022-12-13T05:23:33;98440.50;;;5.51;97.98
8573;BME280;4324;42.012;24.872;2022-12-13T05:26:00;98437.22;;;5.49;96.72
8573;BME280;4324;42.012;24.872;2022-12-13T05:28:28;98433.91;;;5.47;97.77
8573;BME280;4324;42.012;24.872;2022-12-13T05:30:57;98445.75;;;5.51;96.09
8573;BME280;4324;42.012;24.872;2022-12-13T05:33:25;98436.81;;;5.44;96.50
8573;BME280;4324;42.012;24.872;2022-12-13T05:35:52;98447.19;;;5.45;96.19
8573;BME280;4324;42.012;24.872;2022-12-13T05:38:19;98434.19;;;5.44;96.52
8573;BME280;4324;42.012;24.872;2022-12-13T05:40:46;98432.69;;;5.41;96.72
8573;BME280;4324;42.012;24.872;2022-12-13T05:43:13;98437.59;;;5.54;96.82
8573;BME280;4324;42.012;24.872;2022-12-13T05:45:40;98442.69;;;5.55;99.02
8573;BME280;4324;42.012;24.872;2022-12-13T05:48:07;98418.72;;;5.41;97.75
8573;BME280;4324;42.012;24.872;2022-12-13T05:50:36;98442.31;;;5.50;98.17
8573;BME280;4324;42.012;24.872;2022-12-13T05:53:04;98447.41;;;5.52;98.11
8573;BME280;4324;42.012;24.872;2022-12-13T05:55:31;98446.59;;;5.51;97.24
8573;BME280;4324;42.012;24.872;2022-12-13T05:57:58;98457.91;;;5.52;97.95
8573;BME280;4324;42.012;24.872;2022-12-13T06:00:25;98457.25;;;5.50;97.59
8573;BME280;4324;42.012;24.872;2022-12-13T06:02:52;98469.16;;;5.44;97.77
8573;BME280;4324;42.012;24.872;2022-12-13T06:05:19;98429.63;;;5.18;98.49
8573;BME280;4324;42.012;24.872;2022-12-13T06:07:48;98488.34;;;5.45;99.26
8573;BME280;4324;42.012;24.872;2022-12-13T06:10:15;98487.78;;;5.51;98.19
8573;BME280;4324;42.012;24.872;2022-12-13T06:12:42;98480.19;;;5.48;97.13
8573;BME280;4324;42.012;24.872;2022-12-13T06:15:09;98469.59;;;5.40;97.59
8573;BME280;4324;42.012;24.872;2022-12-13T06:17:36;98440.41;;;5.15;96.84
8573;BME280;4324;42.012;24.872;2022-12-13T06:20:04;98499.56;;;5.47;95.61
8573;BME280;4324;42.012;24.872;2022-12-13T06:22:34;98481.16;;;5.47;97.21
8573;BME280;4324;42.012;24.872;2022-12-13T06:25:03;98436.44;;;5.11;94.57
8573;BME280;4324;42.012;24.872;2022-12-13T06:27:30;98503.81;;;5.48;92.86
8573;BME280;4324;42.012;24.872;2022-12-13T06:29:57;98498.28;;;5.51;92.91
8573;BME280;4324;42.012;24.872;2022-12-13T06:32:24;98498.28;;;5.51;93.11
8573;BME280;4324;42.012;24.872;2022-12-13T06:34:51;98507.81;;;5.52;94.19
8573;BME280;4324;42.012;24.872;2022-12-13T06:37:18;98503.69;;;5.49;95.00
8573;BME280;4324;42.012;24.872;2022-12-13T06:39:46;98529.75;;;5.61;93.97
8573;BME280;4324;42.012;24.872;2022-12-13T06:42:16;98513.38;;;5.49;93.95
8573;BME280;4324;42.012;24.872;2022-12-13T06:44:43;98504.34;;;5.51;94.55
8573;BME280;4324;42.012;24.872;2022-12-13T06:47:11;98524.50;;;5.61;92.80
8573;BME280;4324;42.012;24.872;2022-12-13T06:49:38;98522.75;;;5.51;91.87
8573;BME280;4324;42.012;24.872;2022-12-13T06:52:07;98537.75;;;5.59;91.40
8573;BME280;4324;42.012;24.872;2022-12-13T06:54:34;98526.19;;;5.52;91.16
8573;BME280;4324;42.012;24.872;2022-12-13T06:57:01;98536.94;;;5.58;91.21
8573;BME280;4324;42.012;24.872;2022-12-13T06:59:30;98508.00;;;5.41;90.52
8573;BME280;4324;42.012;24.872;2022-12-13T07:01:57;98455.13;;;5.08;91.57
8573;BME280;4324;42.012;24.872;2022-12-13T07:04:24;98541.66;;;5.55;93.04
8573;BME280;4324;42.012;24.872;2022-12-13T07:06:51;98533.13;;;5.53;91.83
8573;BME280;4324;42.012;24.872;2022-12-13T07:09:18;98538.50;;;5.51;92.78
8573;BME280;4324;42.012;24.872;2022-12-13T07:11:45;98550.53;;;5.54;90.76
8573;BME280;4324;42.012;24.872;2022-12-13T07:14:12;98547.59;;;5.57;90.62
8573;BME280;4324;42.012;24.872;2022-12-13T07:16:40;98561.41;;;5.59;90.57
8573;BME280;4324;42.012;24.872;2022-12-13T07:19:08;98558.22;;;5.65;91.46
8573;BME280;4324;42.012;24.872;2022-12-13T07:21:39;98549.63;;;5.63;90.52
8573;BME280;4324;42.012;24.872;2022-12-13T07:24:06;98543.00;;;5.59;91.61
8573;BME280;4324;42.012;24.872;2022-12-13T07:26:34;98554.31;;;5.69;90.21
8573;BME280;4324;42.012;24.872;2022-12-13T07:29:02;98562.00;;;5.80;93.46
8573;BME280;4324;42.012;24.872;2022-12-13T07:31:29;98542.44;;;5.65;91.39
8573;BME280;4324;42.012;24.872;2022-12-13T07:33:58;98548.06;;;5.70;91.29
8573;BME280;4324;42.012;24.872;2022-12-13T07:36:25;98572.88;;;5.86;90.30
8573;BME280;4324;42.012;24.872;2022-12-13T07:38:53;98565.44;;;5.81;89.69
8573;BME280;4324;42.012;24.872;2022-12-13T07:41:20;98573.56;;;5.88;87.36
8573;BME280;4324;42.012;24.872;2022-12-13T07:43:47;98589.34;;;5.88;87.25
8573;BME280;4324;42.012;24.872;2022-12-13T07:46:14;98577.75;;;5.80;87.99
8573;BME280;4324;42.012;24.872;2022-12-13T07:48:41;98571.00;;;5.78;87.51
8573;BME280;4324;42.012;24.872;2022-12-13T07:51:10;98584.91;;;5.88;87.24
8573;BME280;4324;42.012;24.872;2022-12-13T07:53:37;98581.16;;;5.91;91.34
8573;BME280;4324;42.012;24.872;2022-12-13T07:56:06;98572.75;;;5.87;92.65
8573;BME280;4324;42.012;24.872;2022-12-13T07:58:33;98582.56;;;5.95;93.83
8573;BME280;4324;42.012;24.872;2022-12-13T08:01:02;98593.44;;;6.00;92.76
8573;BME280;4324;42.012;24.872;2022-12-13T08:03:30;98593.75;;;5.97;94.12
8573;BME280;4324;42.012;24.872;2022-12-13T08:05:58;98604.13;;;5.98;91.71
8573;BME280;4324;42.012;24.872;2022-12-13T08:08:26;98573.56;;;5.88;95.39
8573;BME280;4324;42.012;24.872;2022-12-13T08:10:53;98595.50;;;6.06;96.00
8573;BME280;4324;42.012;24.872;2022-12-13T08:13:20;98611.34;;;6.14;97.70
8573;BME280;4324;42.012;24.872;2022-12-13T08:15:47;98619.94;;;6.16;96.37
8573;BME280;4324;42.012;24.872;2022-12-13T08:18:14;98612.91;;;6.07;93.38
8573;BME280;4324;42.012;24.872;2022-12-13T08:20:43;98609.63;;;6.05;92.19
8573;BME280;4324;42.012;24.872;2022-12-13T08:23:10;98599.94;;;6.05;92.76
8573;BME280;4324;42.012;24.872;2022-12-13T08:25:38;98610.78;;;6.20;94.31
8573;BME280;4324;42.012;24.872;2022-12-13T08:28:05;98606.63;;;6.18;95.07
8573;BME280;4324;42.012;24.872;2022-12-13T08:30:32;98607.16;;;6.21;93.82
8573;BME280;4324;42.012;24.872;2022-12-13T08:33:02;98614.47;;;6.27;94.46
8573;BME280;4324;42.012;24.872;2022-12-13T08:35:29;98613.50;;;6.28;91.60
8573;BME280;4324;42.012;24.872;2022-12-13T08:37:56;98584.41;;;6.12;92.76
8573;BME280;4324;42.012;24.872;2022-12-13T08:40:23;98618.69;;;6.38;93.38
8573;BME280;4324;42.012;24.872;2022-12-13T08:42:53;98617.25;;;6.44;94.47
8573;BME280;4324;42.012;24.872;2022-12-13T08:45:20;98626.66;;;6.46;93.14
8573;BME280;4324;42.012;24.872;2022-12-13T08:47:48;98631.31;;;6.52;92.12
8573;BME280;4324;42.012;24.872;2022-12-13T08:50:15;98626.91;;;6.53;93.68
8573;BME280;4324;42.012;24.872;2022-12-13T08:52:42;98615.16;;;6.47;93.95
8573;BME280;4324;42.012;24.872;2022-12-13T08:55:10;98619.22;;;6.42;93.19
8573;BME280;4324;42.012;24.872;2022-12-13T08:57:38;98637.72;;;6.50;91.83
8573;BME280;4324;42.012;24.872;2022-12-13T09:00:10;98628.00;;;6.50;92.33
8573;BME280;4324;42.012;24.872;2022-12-13T09:02:37;98596.97;;;6.36;92.62
8573;BME280;4324;42.012;24.872;2022-12-13T09:05:05;98618.03;;;6.54;90.14
8573;BME280;4324;42.012;24.872;2022-12-13T09:07:33;98547.22;;;6.07;92.24
8573;BME280;4324;42.012;24.872;2022-12-13T09:10:00;98626.22;;;6.51;91.08
8573;BME280;4324;42.012;24.872;2022-12-13T09:12:27;98572.00;;;6.22;93.16
8573;BME280;4324;42.012;24.872;2022-12-13T09:14:54;98596.50;;;6.41;92.95
8573;BME280;4324;42.012;24.872;2022-12-13T09:17:23;98610.44;;;6.51;93.13
8573;BME280;4324;42.012;24.872;2022-12-13T09:19:50;98591.78;;;6.44;94.32
8573;BME280;4324;42.012;24.872;2022-12-13T09:22:17;98565.03;;;6.31;96.48
8573;BME280;4324;42.012;24.872;2022-12-13T09:24:45;98592.59;;;6.45;95.77
8573;BME280;4324;42.012;24.872;2022-12-13T09:27:13;98584.88;;;6.43;94.66
8573;BME280;4324;42.012;24.872;2022-12-13T09:29:40;98608.31;;;6.54;95.75
8573;BME280;4324;42.012;24.872;2022-12-13T09:32:07;98589.03;;;6.46;92.74
8573;BME280;4324;42.012;24.872;2022-12-13T09:34:35;98568.63;;;6.30;90.91
8573;BME280;4324;42.012;24.872;2022-12-13T09:37:02;98585.16;;;6.40;92.17
8573;BME280;4324;42.012;24.872;2022-12-13T09:39:29;98590.66;;;6.47;92.77
8573;BME280;4324;42.012;24.872;2022-12-13T09:41:57;98583.47;;;6.49;91.06
8573;BME280;4324;42.012;24.872;2022-12-13T09:44:27;98574.88;;;6.47;91.43
8573;BME280;4324;42.012;24.872;2022-12-13T09:46:56;98585.88;;;6.60;91.52
8573;BME280;4324;42.012;24.872;2022-12-13T09:49:28;98543.09;;;6.40;90.87
8573;BME280;4324;42.012;24.872;2022-12-13T09:52:00;98568.47;;;6.67;91.58
8573;BME280;4324;42.012;24.872;2022-12-13T09:54:28;98563.91;;;6.69;90.93
8573;BME280;4324;42.012;24.872;2022-12-13T09:56:56;98573.81;;;6.75;88.54
8573;BME280;4324;42.012;24.872;2022-12-13T09:59:26;98552.56;;;6.69;88.31
8573;BME280;4324;42.012;24.872;2022-12-13T10:02:01;98567.63;;;6.85;89.60
8573;BME280;4324;42.012;24.872;2022-12-13T10:04:29;98538.34;;;6.79;90.27
8573;BME280;4324;42.012;24.872;2022-12-13T10:06:58;98565.56;;;6.96;89.88
8573;BME280;4324;42.012;24.872;2022-12-13T10:09:26;98554.63;;;7.01;90.93
8573;BME280;4324;42.012;24.872;2022-12-13T10:11:53;98548.44;;;6.92;94.18
8573;BME280;4324;42.012;24.872;2022-12-13T10:14:24;98560.31;;;6.96;93.43
8573;BME280;4324;42.012;24.872;2022-12-13T10:16:54;98564.41;;;6.91;91.09
8573;BME280;4324;42.012;24.872;2022-12-13T10:19:27;98521.59;;;6.63;89.47
8573;BME280;4324;42.012;24.872;2022-12-13T10:21:56;98539.00;;;6.82;91.02
8573;BME280;4324;42.012;24.872;2022-12-13T10:24:27;98564.22;;;6.92;89.50
8573;BME280;4324;42.012;24.872;2022-12-13T10:26:57;98556.84;;;6.96;90.84
8573;BME280;4324;42.012;24.872;2022-12-13T10:29:25;98527.13;;;6.77;91.80
8573;BME280;4324;42.012;24.872;2022-12-13T10:31:52;98553.94;;;6.99;92.30
8573;BME280;4324;42.012;24.872;2022-12-13T10:34:22;98536.28;;;6.91;92.92
8573;BME280;4324;42.012;24.872;2022-12-13T10:36:52;98504.66;;;6.83;93.18
8573;BME280;4324;42.012;24.872;2022-12-13T10:39:37;98531.78;;;7.10;93.76
8573;BME280;4324;42.012;24.872;2022-12-13T10:42:08;98469.63;;;6.83;95.19
8573;BME280;4324;42.012;24.872;2022-12-13T10:44:37;98512.09;;;7.22;96.57
8573;BME280;4324;42.012;24.872;2022-12-13T10:47:14;98522.59;;;7.48;97.49
8573;BME280;4324;42.012;24.872;2022-12-13T10:49:48;98529.91;;;7.62;98.70
8573;BME280;4324;42.012;24.872;2022-12-13T10:52:27;98507.16;;;7.53;99.69
8573;BME280;4324;42.012;24.872;2022-12-13T10:54:59;98522.38;;;7.75;100.00
8573;BME280;4324;42.012;24.872;2022-12-13T10:57:26;98495.69;;;7.70;100.00
8573;BME280;4324;42.012;24.872;2022-12-13T10:59:54;98512.06;;;7.90;100.00
8573;BME280;4324;42.012;24.872;2022-12-13T11:02:28;98504.97;;;7.99;100.00
8573;BME280;4324;42.012;24.872;2022-12-13T11:04:56;98510.25;;;8.07;100.00
8573;BME280;4324;42.012;24.872;2022-12-13T11:07:27;98510.78;;;8.11;100.00
8573;BME280;4324;42.012;24.872;2022-12-13T11:09:55;98474.97;;;7.84;100.00
8573;BME280;4324;42.012;24.872;2022-12-13T11:12:25;98513.56;;;8.01;100.00
8573;BME280;4324;42.012;24.872;2022-12-13T11:14:55;98506.63;;;8.00;100.00
8573;BME280;4324;42.012;24.872;2022-12-13T11:17:28;98514.22;;;8.03;100.00
8573;BME280;4324;42.012;24.872;2022-12-13T11:19:57;98503.69;;;8.11;100.00
8573;BME280;4324;42.012;24.872;2022-12-13T11:22:28;98506.81;;;8.23;100.00
8573;BME280;4324;42.012;24.872;2022-12-13T11:24:59;98506.72;;;8.41;100.00
8573;BME280;4324;42.012;24.872;2022-12-13T11:27:42;98511.00;;;8.58;100.00
8573;BME280;4324;42.012;24.872;2022-12-13T11:30:13;98505.56;;;8.76;100.00
8573;BME280;4324;42.012;24.872;2022-12-13T11:33:06;98495.31;;;8.89;100.00
8573;BME280;4324;42.012;24.872;2022-12-13T11:35:46;98483.09;;;8.88;100.00
8573;BME280;4324;42.012;24.872;2022-12-13T11:38:25;98477.31;;;8.85;100.00
8573;BME280;4324;42.012;24.872;2022-12-13T11:40:58;98490.84;;;8.98;100.00
8573;BME280;4324;42.012;24.872;2022-12-13T11:43:33;98498.91;;;8.96;100.00
8573;BME280;4324;42.012;24.872;2022-12-13T11:46:09;98472.06;;;8.77;100.00
8573;BME280;4324;42.012;24.872;2022-12-13T11:48:42;98479.31;;;8.83;100.00
8573;BME280;4324;42.012;24.872;2022-12-13T11:51:12;98458.38;;;8.73;100.00
8573;BME280;4324;42.012;24.872;2022-12-13T11:53:48;98499.59;;;8.82;100.00
8573;BME280;4324;42.012;24.872;2022-12-13T11:56:22;98490.53;;;8.77;100.00
8573;BME280;4324;42.012;24.872;2022-12-13T11:58:57;98492.53;;;8.66;100.00
8573;BME280;4324;42.012;24.872;2022-12-13T12:01:31;98498.00;;;8.57;100.00
8573;BME280;4324;42.012;24.872;2022-12-13T12:04:10;98468.25;;;8.22;100.00
8573;BME280;4324;42.012;24.872;2022-12-13T12:06:42;98483.91;;;8.15;100.00
8573;BME280;4324;42.012;24.872;2022-12-13T12:09:13;98502.53;;;8.14;100.00
8573;BME280;4324;42.012;24.872;2022-12-13T12:11:44;98476.81;;;7.99;100.00
8573;BME280;4324;42.012;24.872;2022-12-13T12:14:18;98465.56;;;7.81;100.00
8573;BME280;4324;42.012;24.872;2022-12-13T12:16:50;98488.84;;;7.94;100.00
8573;BME280;4324;42.012;24.872;2022-12-13T12:19:19;98501.66;;;7.97;100.00
8573;BME280;4324;42.012;24.872;2022-12-13T12:22:09;98511.25;;;7.90;100.00
8573;BME280;4324;42.012;24.872;2022-12-13T12:24:45;98509.22;;;7.75;100.00
8573;BME280;4324;42.012;24.872;2022-12-13T12:27:23;98502.56;;;7.63;100.00
8573;BME280;4324;42.012;24.872;2022-12-13T12:30:18;98500.94;;;7.62;100.00
8573;BME280;4324;42.012;24.872;2022-12-13T12:32:50;98502.22;;;7.58;100.00
8573;BME280;4324;42.012;24.872;2022-12-13T12:38:26;98486.53;;;7.48;100.00
8573;BME280;4324;42.012;24.872;2022-12-13T12:41:07;98480.72;;;7.37;100.00
8573;BME280;4324;42.012;24.872;2022-12-13T12:43:40;98444.44;;;7.14;100.00
8573;BME280;4324;42.012;24.872;2022-12-13T12:46:33;98422.63;;;6.96;100.00
8573;BME280;4324;42.012;24.872;2022-12-13T12:49:27;98482.34;;;7.30;100.00
8573;BME280;4324;42.012;24.872;2022-12-13T12:52:02;98493.19;;;7.26;100.00
8573;BME280;4324;42.012;24.872;2022-12-13T12:54:41;98503.09;;;7.33;100.00
8573;BME280;4324;42.012;24.872;2022-12-13T12:57:17;98501.59;;;7.30;100.00
8573;BME280;4324;42.012;24.872;2022-12-13T12:59:55;98476.03;;;7.14;100.00
8573;BME280;4324;42.012;24.872;2022-12-13T13:02:31;98416.25;;;6.72;100.00
8573;BME280;4324;42.012;24.872;2022-12-13T13:05:13;98493.16;;;7.18;100.00
8573;BME280;4324;42.012;24.872;2022-12-13T13:07:45;98503.59;;;7.28;100.00
8573;BME280;4324;42.012;24.872;2022-12-13T13:10:16;98500.78;;;7.30;100.00
8573;BME280;4324;42.012;24.872;2022-12-13T13:12:46;98498.63;;;7.25;100.00
8573;BME280;4324;42.012;24.872;2022-12-13T13:15:42;98515.09;;;7.27;100.00
8573;BME280;4324;42.012;24.872;2022-12-13T13:18:45;98517.88;;;7.25;100.00
8573;BME280;4324;42.012;24.872;2022-12-13T13:24:22;98533.03;;;7.23;100.00
8573;BME280;4324;42.012;24.872;2022-12-13T13:26:52;98525.75;;;7.17;100.00
8573;BME280;4324;42.012;24.872;2022-12-13T13:29:30;98537.59;;;7.21;100.00
8573;BME280;4324;42.012;24.872;2022-12-13T13:32:00;98549.78;;;7.22;100.00
8573;BME280;4324;42.012;24.872;2022-12-13T13:34:33;98571.19;;;7.19;100.00
8573;BME280;4324;42.012;24.872;2022-12-13T13:37:01;98571.06;;;7.03;100.00
8573;BME280;4324;42.012;24.872;2022-12-13T13:39:53;98597.38;;;7.03;100.00
8573;BME280;4324;42.012;24.872;2022-12-13T13:42:21;98594.47;;;6.88;100.00
8573;BME280;4324;42.012;24.872;2022-12-13T13:48:14;98614.59;;;6.71;100.00
8573;BME280;4324;42.012;24.872;2022-12-13T13:54:24;98621.72;;;6.61;100.00